createdAt,value
2023-04-17T00:01:31.432Z,22.98
2023-04-17T00:03:58.252Z,21.30
2023-04-17T00:06:27.285Z,22.88
2023-04-17T00:08:54.105Z,22.98
2023-04-17T00:11:21.372Z,21.75
2023-04-17T00:13:48.085Z,24.95
2023-04-17T00:16:14.809Z,22.48
2023-04-17T00:18:41.563Z,22.02
2023-04-17T00:21:08.305Z,23.85
2023-04-17T00:23:35.367Z,22.65
2023-04-17T00:26:02.109Z,24.88
2023-04-17T00:28:28.797Z,20.40
2023-04-17T00:30:55.761Z,22.48
2023-04-17T00:33:22.724Z,21.92
2023-04-17T00:35:49.441Z,24.80
2023-04-17T00:38:16.368Z,23.05
2023-04-17T00:40:45.257Z,24.15
2023-04-17T00:43:12.036Z,23.20
2023-04-17T00:45:39.507Z,22.50
2023-04-17T00:48:07.587Z,21.80
2023-04-17T00:50:35.184Z,24.98
2023-04-17T00:53:02.049Z,24.52
2023-04-17T00:55:29.161Z,26.90
2023-04-17T00:57:56.688Z,27.27
2023-04-17T01:00:23.550Z,23.88
2023-04-17T01:02:50.480Z,20.52
2023-04-17T01:05:17.592Z,26.20
2023-04-17T01:07:45.585Z,22.35
2023-04-17T01:10:12.306Z,22.33
2023-04-17T01:12:38.993Z,20.63
2023-04-17T01:15:06.742Z,24.30
2023-04-17T01:17:33.586Z,24.00
2023-04-17T01:20:00.372Z,20.60
2023-04-17T01:22:27.125Z,23.40
2023-04-17T01:24:57.576Z,24.35
2023-04-17T01:27:27.852Z,26.15
2023-04-17T01:29:55.216Z,23.38
2023-04-17T01:32:22.016Z,25.15
2023-04-17T01:34:49.781Z,23.63
2023-04-17T01:37:16.685Z,22.13
2023-04-17T01:39:43.392Z,22.25
2023-04-17T01:42:10.087Z,24.85
2023-04-17T01:44:37.554Z,21.92
2023-04-17T01:47:04.343Z,24.25
2023-04-17T01:49:31.172Z,26.75
2023-04-17T01:51:57.996Z,29.73
2023-04-17T01:54:25.024Z,25.10
2023-04-17T01:56:51.760Z,24.55
2023-04-17T01:59:18.549Z,24.00
2023-04-17T02:01:45.428Z,22.33
2023-04-17T02:04:12.286Z,24.23
2023-04-17T02:06:39.124Z,21.42
2023-04-17T02:09:06.162Z,26.85
2023-04-17T02:11:32.966Z,24.77
2023-04-17T02:13:59.807Z,23.17
2023-04-17T02:16:26.847Z,24.05
2023-04-17T02:18:54.121Z,22.70
2023-04-17T02:21:21.586Z,24.05
2023-04-17T02:23:48.284Z,21.20
2023-04-17T02:26:15.895Z,21.63
2023-04-17T02:28:45.518Z,22.65
2023-04-17T02:31:13.226Z,19.50
2023-04-17T02:33:39.984Z,21.20
2023-04-17T02:36:08.337Z,21.00
2023-04-17T02:38:43.170Z,24.67
2023-04-17T02:41:10.310Z,22.08
2023-04-17T02:43:38.415Z,25.65
2023-04-17T02:46:05.249Z,24.25
2023-04-17T02:48:32.060Z,26.73
2023-04-17T02:50:58.807Z,22.13
2023-04-17T02:53:25.676Z,23.90
2023-04-17T02:55:52.744Z,25.00
2023-04-17T02:58:22.426Z,21.67
2023-04-17T03:00:49.159Z,26.15
2023-04-17T03:03:18.977Z,24.55
2023-04-17T03:05:45.919Z,26.80
2023-04-17T03:08:12.601Z,24.63
2023-04-17T03:10:44.639Z,27.90
2023-04-17T03:13:11.398Z,24.42
2023-04-17T03:15:38.079Z,24.05
2023-04-17T03:18:04.887Z,30.00
2023-04-17T03:20:32.284Z,26.92
2023-04-17T03:22:59.042Z,26.38
2023-04-17T03:25:25.975Z,25.83
2023-04-17T03:27:53.134Z,25.80
2023-04-17T03:30:23.291Z,27.35
2023-04-17T03:32:51.905Z,22.95
2023-04-17T03:35:18.724Z,25.45
2023-04-17T03:37:45.425Z,21.42
2023-04-17T03:40:13.273Z,25.92
2023-04-17T03:42:40.119Z,25.15
2023-04-17T03:45:08.032Z,28.08
2023-04-17T03:47:34.746Z,23.88
2023-04-17T03:50:01.505Z,24.58
2023-04-17T03:52:34.184Z,27.70
2023-04-17T03:55:03.509Z,22.02
2023-04-17T03:57:30.376Z,23.45
2023-04-17T03:59:57.659Z,26.27
2023-04-17T04:02:24.979Z,25.75
2023-04-17T04:04:53.538Z,21.35
2023-04-17T04:07:21.488Z,22.77
2023-04-17T04:09:49.904Z,21.90
2023-04-17T04:12:17.635Z,22.60
2023-04-17T04:14:45.725Z,23.42
2023-04-17T04:17:14.501Z,22.92
2023-04-17T04:19:42.788Z,24.48
2023-04-17T04:22:10.378Z,20.88
2023-04-17T04:24:47.071Z,23.20
2023-04-17T04:27:18.219Z,21.35
2023-04-17T04:29:48.765Z,20.83
2023-04-17T04:32:19.852Z,21.83
2023-04-17T04:34:47.471Z,23.67
2023-04-17T04:37:17.781Z,20.50
2023-04-17T04:39:47.234Z,23.23
2023-04-17T04:42:21.845Z,24.15
2023-04-17T04:45:10.102Z,24.05
2023-04-17T04:47:37.177Z,23.58
2023-04-17T04:50:04.245Z,19.63
2023-04-17T04:52:32.767Z,22.25
2023-04-17T04:55:04.744Z,26.02
2023-04-17T04:57:33.072Z,23.75
2023-04-17T05:00:01.886Z,21.42
2023-04-17T05:02:37.090Z,24.02
2023-04-17T05:05:09.442Z,24.55
2023-04-17T05:07:36.393Z,24.92
2023-04-17T05:10:06.567Z,24.25
2023-04-17T05:12:36.574Z,20.50
2023-04-17T05:15:07.041Z,25.15
2023-04-17T05:17:34.078Z,24.40
2023-04-17T05:20:01.023Z,28.20
2023-04-17T05:22:30.573Z,24.95
2023-04-17T05:25:10.182Z,19.50
2023-04-17T05:27:37.717Z,27.08
2023-04-17T05:30:06.416Z,23.10
2023-04-17T05:32:34.962Z,23.80
2023-04-17T05:35:14.497Z,23.02
2023-04-17T05:37:43.036Z,21.15
2023-04-17T05:40:10.433Z,22.75
2023-04-17T05:42:37.175Z,20.63
2023-04-17T05:45:04.994Z,27.15
2023-04-17T05:47:32.702Z,19.27
2023-04-17T05:49:59.973Z,22.15
2023-04-17T05:52:28.878Z,22.00
2023-04-17T05:54:56.530Z,27.20
2023-04-17T05:57:24.348Z,24.02
2023-04-17T05:59:51.099Z,27.02
2023-04-17T06:02:18.174Z,25.38
2023-04-17T06:04:47.051Z,22.23
2023-04-17T06:07:14.179Z,22.98
2023-04-17T06:09:41.562Z,20.23
2023-04-17T06:12:14.727Z,19.40
2023-04-17T06:14:43.403Z,19.88
2023-04-17T06:17:12.346Z,25.08
2023-04-17T06:19:39.703Z,24.10
2023-04-17T06:22:07.161Z,25.15
2023-04-17T06:24:33.957Z,22.27
2023-04-17T06:27:00.770Z,24.80
2023-04-17T06:29:27.507Z,21.20
2023-04-17T06:31:54.227Z,22.75
2023-04-17T06:34:22.269Z,26.40
2023-04-17T06:36:49.327Z,22.20
2023-04-17T06:39:17.746Z,21.50
2023-04-17T06:41:44.809Z,20.88
2023-04-17T06:44:12.134Z,18.67
2023-04-17T06:46:46.964Z,20.70
2023-04-17T06:49:14.173Z,25.40
2023-04-17T06:51:41.462Z,22.58
2023-04-17T06:54:09.849Z,20.48
2023-04-17T06:56:36.662Z,21.73
2023-04-17T06:59:03.700Z,21.38
2023-04-17T07:01:31.431Z,22.88
2023-04-17T07:03:58.341Z,22.13
2023-04-17T07:06:25.128Z,22.23
2023-04-17T07:08:53.541Z,18.98
2023-04-17T07:11:22.164Z,19.88
2023-04-17T07:13:48.832Z,22.70
2023-04-17T07:16:16.289Z,17.90
2023-04-17T07:18:43.253Z,20.65
2023-04-17T07:21:09.930Z,17.85
2023-04-17T07:23:36.606Z,18.85
2023-04-17T07:26:03.296Z,20.30
2023-04-17T07:28:30.064Z,20.63
2023-04-17T07:30:58.115Z,20.17
2023-04-17T07:33:24.955Z,22.30
2023-04-17T07:35:51.759Z,22.63
2023-04-17T07:38:18.446Z,15.48
2023-04-17T07:40:45.347Z,25.27
2023-04-17T07:43:12.086Z,20.15
2023-04-17T07:45:40.482Z,20.30
2023-04-17T07:48:09.045Z,19.17
2023-04-17T07:50:35.881Z,18.27
2023-04-17T07:53:02.598Z,18.90
2023-04-17T07:55:29.373Z,26.48
2023-04-17T07:57:56.562Z,22.10
2023-04-17T08:00:23.984Z,21.75
2023-04-17T08:02:50.941Z,21.38
2023-04-17T08:05:18.014Z,18.67
2023-04-17T08:07:44.793Z,19.65
2023-04-17T08:10:11.707Z,22.15
2023-04-17T08:12:38.439Z,20.40
2023-04-17T08:15:05.706Z,18.73
2023-04-17T08:17:33.284Z,22.33
2023-04-17T08:20:02.113Z,17.90
2023-04-17T08:22:29.263Z,20.67
2023-04-17T08:24:59.568Z,20.70
2023-04-17T08:27:26.541Z,11.43
2023-04-17T08:29:56.504Z,19.17
2023-04-17T08:32:23.337Z,22.35
2023-04-17T08:34:50.055Z,20.75
2023-04-17T08:37:16.897Z,18.42
2023-04-17T08:39:43.632Z,18.45
2023-04-17T08:42:15.419Z,18.42
2023-04-17T08:44:45.599Z,16.98
2023-04-17T08:47:13.291Z,19.98
2023-04-17T08:49:43.495Z,17.23
2023-04-17T08:52:11.277Z,15.48
2023-04-17T08:54:38.977Z,12.38
2023-04-17T08:57:06.483Z,14.13
2023-04-17T08:59:33.559Z,11.23
2023-04-17T09:02:05.047Z,12.27
2023-04-17T09:04:42.576Z,14.52
2023-04-17T09:07:12.499Z,17.10
2023-04-17T09:09:56.325Z,11.63
2023-04-17T09:12:25.565Z,15.10
2023-04-17T09:14:53.103Z,10.38
2023-04-17T09:17:22.056Z,13.68
2023-04-17T09:20:08.898Z,15.63
2023-04-17T09:22:37.655Z,14.18
2023-04-17T09:25:05.311Z,12.65
2023-04-17T09:27:32.429Z,17.17
2023-04-17T09:30:04.794Z,13.18
2023-04-17T09:32:32.964Z,14.98
2023-04-17T09:35:02.300Z,14.18
2023-04-17T09:37:49.462Z,14.23
2023-04-17T09:40:17.265Z,13.55
2023-04-17T09:43:01.016Z,12.35
2023-04-17T09:45:35.770Z,11.57
2023-04-17T09:48:13.355Z,12.32
2023-04-17T09:50:40.464Z,12.85
2023-04-17T09:53:08.256Z,12.52
2023-04-17T09:55:37.592Z,11.40
2023-04-17T09:58:06.340Z,14.10
2023-04-17T10:00:33.384Z,9.88
2023-04-17T10:03:00.523Z,9.68
2023-04-17T10:05:31.468Z,12.15
2023-04-17T10:07:58.323Z,12.07
2023-04-17T10:10:27.353Z,13.25
2023-04-17T10:12:57.431Z,9.60
2023-04-17T10:15:25.622Z,11.38
2023-04-17T10:17:57.426Z,10.30
2023-04-17T10:20:24.042Z,15.60
2023-04-17T10:22:55.929Z,13.93
2023-04-17T10:25:26.455Z,11.32
2023-04-17T10:27:59.288Z,12.18
2023-04-17T10:30:55.824Z,11.55
2023-04-17T10:33:27.163Z,9.57
2023-04-17T10:35:54.704Z,11.48
2023-04-17T10:38:36.045Z,8.95
2023-04-17T10:41:08.900Z,9.98
2023-04-17T10:43:35.679Z,8.63
2023-04-17T10:46:09.704Z,11.35
2023-04-17T10:48:41.564Z,10.20
2023-04-17T10:51:23.815Z,9.90
2023-04-17T10:54:01.168Z,10.95
2023-04-17T10:56:49.267Z,10.93
2023-04-17T10:59:18.931Z,7.95
2023-04-17T11:01:48.819Z,7.97
2023-04-17T11:04:33.623Z,9.82
2023-04-17T11:07:00.960Z,10.82
2023-04-17T11:09:29.476Z,9.40
2023-04-17T11:12:01.889Z,8.20
2023-04-17T11:14:30.353Z,11.63
2023-04-17T11:16:57.345Z,10.82
2023-04-17T11:19:26.231Z,9.85
2023-04-17T11:21:58.485Z,9.48
2023-04-17T11:24:28.418Z,7.95
2023-04-17T11:26:56.778Z,7.65
2023-04-17T11:29:24.534Z,8.93
2023-04-17T11:31:54.376Z,9.60
2023-04-17T11:34:21.654Z,7.80
2023-04-17T11:36:59.346Z,12.05
2023-04-17T11:39:30.050Z,9.63
2023-04-17T11:41:57.313Z,6.82
2023-04-17T11:44:25.401Z,7.60
2023-04-17T11:46:56.627Z,8.23
2023-04-17T11:49:32.080Z,8.60
2023-04-17T11:52:04.378Z,7.40
2023-04-17T11:54:37.115Z,7.45
2023-04-17T11:57:06.420Z,8.88
2023-04-17T11:59:38.782Z,7.90
2023-04-17T12:02:07.472Z,7.95
2023-04-17T12:04:36.884Z,7.97
2023-04-17T12:07:05.563Z,6.47
2023-04-17T12:09:34.125Z,7.40
2023-04-17T12:12:04.141Z,8.43
2023-04-17T12:14:31.531Z,7.43
2023-04-17T12:16:58.636Z,5.75
2023-04-17T12:19:29.467Z,8.18
2023-04-17T12:21:57.350Z,4.88
2023-04-17T12:24:25.083Z,6.90
2023-04-17T12:26:52.935Z,6.00
2023-04-17T12:29:26.560Z,6.68
2023-04-17T12:32:03.802Z,7.20
2023-04-17T12:34:30.825Z,5.60
2023-04-17T12:36:57.490Z,6.40
2023-04-17T12:39:24.200Z,7.50
2023-04-17T12:41:50.942Z,6.28
2023-04-17T12:44:17.689Z,5.80
2023-04-17T12:46:44.468Z,5.57
2023-04-17T12:49:11.401Z,5.18
2023-04-17T12:51:38.330Z,6.05
2023-04-17T12:54:05.393Z,6.40
2023-04-17T12:56:32.394Z,4.95
2023-04-17T12:59:02.086Z,5.85
2023-04-17T13:01:29.843Z,4.35
2023-04-17T13:03:57.075Z,5.05
2023-04-17T13:06:24.152Z,5.25
2023-04-17T13:08:51.103Z,5.60
2023-04-17T13:11:17.908Z,6.82
2023-04-17T13:13:45.020Z,6.32
2023-04-17T13:16:11.909Z,6.82
2023-04-17T13:18:38.663Z,5.45
2023-04-17T13:21:05.484Z,3.67
2023-04-17T13:23:32.188Z,6.35
2023-04-17T13:25:58.971Z,5.15
2023-04-17T13:28:25.771Z,5.43
2023-04-17T13:30:53.082Z,5.57
2023-04-17T13:33:20.197Z,6.53
2023-04-17T13:35:47.045Z,6.28
2023-04-17T13:38:13.798Z,5.97
2023-04-17T13:40:40.856Z,4.40
2023-04-17T13:43:07.657Z,5.97
2023-04-17T13:45:34.827Z,6.85
2023-04-17T13:48:01.663Z,5.07
2023-04-17T13:50:28.457Z,5.85
2023-04-17T13:52:55.275Z,6.88
2023-04-17T13:55:22.006Z,6.15
2023-04-17T13:57:48.872Z,5.55
2023-04-17T14:00:17.220Z,6.15
2023-04-17T14:02:44.091Z,7.40
2023-04-17T14:05:11.209Z,7.03
2023-04-17T14:07:38.313Z,7.93
2023-04-17T14:10:05.785Z,5.25
2023-04-17T14:12:32.505Z,6.97
2023-04-17T14:14:59.266Z,6.43
2023-04-17T14:17:26.020Z,5.72
2023-04-17T14:19:52.959Z,5.72
2023-04-17T14:22:20.120Z,6.25
2023-04-17T14:24:46.878Z,6.35
2023-04-17T14:27:13.656Z,6.80
2023-04-17T14:29:40.457Z,7.00
2023-04-17T14:32:07.157Z,6.20
2023-04-17T14:34:33.917Z,4.82
2023-04-17T14:37:00.682Z,6.05
2023-04-17T14:39:29.537Z,7.72
2023-04-17T14:41:59.542Z,6.95
2023-04-17T14:44:28.036Z,7.05
2023-04-17T14:46:56.684Z,6.40
2023-04-17T14:49:23.633Z,8.93
2023-04-17T14:51:50.375Z,6.55
2023-04-17T14:54:17.403Z,8.10
2023-04-17T14:56:44.249Z,7.25
2023-04-17T14:59:11.459Z,8.07
2023-04-17T15:01:38.354Z,9.50
2023-04-17T15:04:05.343Z,6.00
2023-04-17T15:06:32.234Z,8.73
2023-04-17T15:08:58.975Z,9.05
2023-04-17T15:11:25.762Z,7.05
2023-04-17T15:13:52.446Z,7.78
2023-04-17T15:16:19.284Z,7.15
2023-04-17T15:18:46.055Z,7.63
2023-04-17T15:21:12.776Z,7.28
2023-04-17T15:23:39.592Z,7.97
2023-04-17T15:26:06.343Z,7.95
2023-04-17T15:28:33.935Z,8.50
2023-04-17T15:31:02.385Z,6.07
2023-04-17T15:33:29.179Z,6.75
2023-04-17T15:35:58.119Z,8.18
2023-04-17T15:38:26.158Z,8.10
2023-04-17T15:40:53.367Z,8.88
2023-04-17T15:43:20.875Z,7.53
2023-04-17T15:45:51.590Z,7.88
2023-04-17T15:48:18.268Z,6.97
2023-04-17T15:50:45.067Z,7.63
2023-04-17T15:53:13.172Z,7.88
2023-04-17T15:55:41.144Z,6.50
2023-04-17T15:58:08.218Z,9.07
2023-04-17T16:00:35.007Z,6.60
2023-04-17T16:03:01.999Z,7.72
2023-04-17T16:05:30.312Z,7.82
2023-04-17T16:07:57.227Z,6.50
2023-04-17T16:10:24.108Z,7.75
2023-04-17T16:12:52.077Z,5.75
2023-04-17T16:15:21.756Z,6.75
2023-04-17T16:17:48.812Z,7.35
2023-04-17T16:20:15.897Z,5.70
2023-04-17T16:22:42.591Z,7.00
2023-04-17T16:25:12.027Z,5.63
2023-04-17T16:27:40.219Z,7.57
2023-04-17T16:30:08.674Z,6.78
2023-04-17T16:32:35.418Z,6.80
2023-04-17T16:35:02.165Z,6.60
2023-04-17T16:37:28.849Z,6.22
2023-04-17T16:39:55.960Z,6.85
2023-04-17T16:42:24.132Z,5.00
2023-04-17T16:44:50.970Z,6.00
2023-04-17T16:47:17.783Z,7.05
2023-04-17T16:49:44.584Z,5.75
2023-04-17T16:52:11.332Z,8.10
2023-04-17T16:54:38.109Z,6.30
2023-04-17T16:57:05.870Z,6.65
2023-04-17T16:59:32.995Z,8.05
2023-04-17T17:02:02.493Z,6.07
2023-04-17T17:04:30.365Z,6.57
2023-04-17T17:06:57.547Z,5.43
2023-04-17T17:09:25.142Z,6.55
2023-04-17T17:11:51.898Z,5.32
2023-04-17T17:14:18.695Z,7.03
2023-04-17T17:16:45.556Z,6.65
2023-04-17T17:19:12.395Z,6.05
2023-04-17T17:21:39.302Z,5.50
2023-04-17T17:24:06.375Z,6.57
2023-04-17T17:26:33.155Z,6.72
2023-04-17T17:28:59.966Z,6.32
2023-04-17T17:31:26.751Z,5.57
2023-04-17T17:33:55.004Z,5.10
2023-04-17T17:36:21.930Z,6.88
2023-04-17T17:38:55.584Z,5.75
2023-04-17T17:41:26.277Z,7.00
2023-04-17T17:43:55.955Z,6.50
2023-04-17T17:46:24.387Z,5.32
2023-04-17T17:48:51.243Z,6.40
2023-04-17T17:51:18.037Z,7.90
2023-04-17T17:53:44.792Z,6.80
2023-04-17T17:56:11.578Z,6.75
2023-04-17T17:58:38.377Z,6.50
2023-04-17T18:01:05.181Z,5.80
2023-04-17T18:03:32.890Z,6.47
2023-04-17T18:05:59.707Z,5.63
2023-04-17T18:08:26.570Z,6.80
2023-04-17T18:10:53.336Z,5.60
2023-04-17T18:13:20.138Z,6.93
2023-04-17T18:15:46.949Z,5.20
2023-04-17T18:18:13.709Z,7.30
2023-04-17T18:20:40.598Z,5.97
2023-04-17T18:23:07.403Z,3.47
2023-04-17T18:25:35.916Z,5.40
2023-04-17T18:28:06.254Z,6.03
2023-04-17T18:30:33.119Z,6.35
2023-04-17T18:32:59.966Z,6.60
2023-04-17T18:35:26.758Z,6.43
2023-04-17T18:37:53.429Z,5.43
2023-04-17T18:40:22.578Z,7.13
2023-04-17T18:42:49.289Z,5.55
2023-04-17T18:45:16.304Z,6.13
2023-04-17T18:47:43.844Z,6.32
2023-04-17T18:50:11.440Z,6.00
2023-04-17T18:52:42.649Z,5.60
2023-04-17T18:55:14.051Z,6.22
2023-04-17T18:57:41.055Z,7.03
2023-04-17T19:00:08.590Z,6.45
2023-04-17T19:02:37.033Z,6.53
2023-04-17T19:05:04.581Z,6.43
2023-04-17T19:07:31.309Z,5.95
2023-04-17T19:09:58.013Z,6.53
2023-04-17T19:12:24.783Z,6.15
2023-04-17T19:14:51.927Z,6.28
2023-04-17T19:17:18.626Z,6.78
2023-04-17T19:19:45.609Z,6.00
2023-04-17T19:22:14.054Z,6.68
2023-04-17T19:24:42.259Z,6.72
2023-04-17T19:27:08.960Z,6.93
2023-04-17T19:29:35.717Z,7.03
2023-04-17T19:32:02.609Z,6.68
2023-04-17T19:34:29.378Z,7.45
2023-04-17T19:36:56.096Z,6.68
2023-04-17T19:39:23.388Z,6.47
2023-04-17T19:41:51.932Z,6.45
2023-04-17T19:44:19.211Z,6.85
2023-04-17T19:46:48.886Z,6.38
2023-04-17T19:49:15.827Z,6.20
2023-04-17T19:51:42.597Z,6.10
2023-04-17T19:54:11.861Z,7.22
2023-04-17T19:56:39.234Z,5.95
2023-04-17T19:59:06.135Z,8.63
2023-04-17T20:01:33.113Z,7.70
2023-04-17T20:03:59.993Z,8.75
2023-04-17T20:06:26.977Z,7.13
2023-04-17T20:08:56.031Z,6.50
2023-04-17T20:11:23.599Z,6.63
2023-04-17T20:13:51.715Z,7.47
2023-04-17T20:16:18.760Z,6.32
2023-04-17T20:18:49.681Z,6.60
2023-04-17T20:21:16.472Z,7.10
2023-04-17T20:23:43.632Z,7.80
2023-04-17T20:26:11.285Z,6.78
2023-04-17T20:28:38.016Z,5.95
2023-04-17T20:31:04.858Z,6.35
2023-04-17T20:33:31.767Z,6.90
2023-04-17T20:35:58.585Z,6.65
2023-04-17T20:38:25.731Z,7.55
2023-04-17T20:40:52.629Z,6.43
2023-04-17T20:43:19.433Z,6.93
2023-04-17T20:45:48.236Z,6.25
2023-04-17T20:48:15.126Z,6.60
2023-04-17T20:50:41.992Z,6.78
2023-04-17T20:53:08.685Z,7.57
2023-04-17T20:55:37.906Z,7.05
2023-04-17T20:58:04.720Z,8.07
2023-04-17T21:00:31.567Z,7.05
2023-04-17T21:02:58.376Z,6.78
2023-04-17T21:05:25.204Z,8.52
2023-04-17T21:07:52.957Z,8.32
2023-04-17T21:10:20.348Z,8.27
2023-04-17T21:12:47.162Z,8.05
2023-04-17T21:15:13.881Z,6.80
2023-04-17T21:17:40.761Z,6.07
2023-04-17T21:20:09.480Z,8.55
2023-04-17T21:22:37.049Z,6.85
2023-04-17T21:25:04.159Z,7.15
2023-04-17T21:27:31.007Z,7.88
2023-04-17T21:29:57.704Z,6.28
2023-04-17T21:32:24.503Z,8.85
2023-04-17T21:34:51.248Z,7.40
2023-04-17T21:37:18.015Z,7.38
2023-04-17T21:39:44.706Z,8.90
2023-04-17T21:42:11.424Z,8.07
2023-04-17T21:44:38.162Z,8.50
2023-04-17T21:47:04.918Z,8.13
2023-04-17T21:49:31.624Z,8.55
2023-04-17T21:51:58.480Z,7.10
2023-04-17T21:54:27.790Z,6.70
2023-04-17T21:56:54.524Z,7.93
2023-04-17T21:59:21.208Z,9.85
2023-04-17T22:01:48.003Z,10.85
2023-04-17T22:04:14.841Z,9.55
2023-04-17T22:06:41.780Z,9.40
2023-04-17T22:09:08.780Z,8.13
2023-04-17T22:11:38.347Z,8.43
2023-04-17T22:14:05.269Z,8.40
2023-04-17T22:16:32.065Z,7.55
2023-04-17T22:18:58.822Z,8.52
2023-04-17T22:21:26.808Z,10.32
2023-04-17T22:23:53.559Z,10.32
2023-04-17T22:26:21.139Z,8.25
2023-04-17T22:28:48.005Z,10.13
2023-04-17T22:31:15.499Z,9.07
2023-04-17T22:33:45.120Z,9.90
2023-04-17T22:36:11.795Z,8.40
2023-04-17T22:38:38.597Z,8.20
2023-04-17T22:41:05.588Z,8.75
2023-04-17T22:43:32.305Z,6.65
2023-04-17T22:45:59.077Z,7.57
2023-04-17T22:48:27.650Z,6.38
2023-04-17T22:50:57.159Z,7.85
2023-04-17T22:53:23.971Z,6.18
2023-04-17T22:56:04.978Z,6.63
2023-04-17T22:58:33.511Z,6.22
2023-04-17T23:01:00.545Z,5.57
2023-04-17T23:03:27.349Z,6.63
2023-04-17T23:05:54.373Z,5.35
2023-04-17T23:08:21.663Z,7.20
2023-04-17T23:11:00.066Z,5.30
2023-04-17T23:13:27.910Z,6.43
2023-04-17T23:15:54.707Z,6.07
2023-04-17T23:18:21.440Z,7.97
2023-04-17T23:20:48.235Z,9.15
2023-04-17T23:23:15.294Z,8.40
2023-04-17T23:25:43.118Z,7.68
2023-04-17T23:28:10.319Z,5.90
2023-04-17T23:30:37.110Z,9.52
2023-04-17T23:33:04.292Z,6.65
2023-04-17T23:35:31.150Z,5.40
2023-04-17T23:37:57.883Z,6.93
2023-04-17T23:40:25.732Z,7.45
2023-04-17T23:42:53.030Z,6.55
2023-04-17T23:45:20.012Z,5.10
2023-04-17T23:47:46.803Z,5.88
2023-04-17T23:50:13.810Z,6.95
2023-04-17T23:52:40.546Z,7.43
2023-04-17T23:55:08.006Z,6.50
2023-04-17T23:57:37.664Z,5.13
